createdAt,value
2019-05-01T00:01:11.370Z,11.50
2019-05-01T00:04:15.282Z,11.54
2019-05-01T00:06:52.597Z,11.45
2019-05-01T00:09:25.146Z,11.57
2019-05-01T00:11:57.927Z,11.67
2019-05-01T00:14:30.781Z,11.55
2019-05-01T00:17:03.727Z,11.48
2019-05-01T00:19:36.295Z,11.45
2019-05-01T00:22:10.748Z,11.40
2019-05-01T00:24:47.586Z,11.32
2019-05-01T00:27:20.799Z,11.24
2019-05-01T00:29:54.155Z,11.23
2019-05-01T00:32:27.835Z,11.24
2019-05-01T00:35:00.312Z,11.25
2019-05-01T00:37:33.148Z,11.25
2019-05-01T00:40:05.765Z,11.23
2019-05-01T00:42:39.066Z,11.18
2019-05-01T00:45:13.452Z,11.17
2019-05-01T00:47:46.734Z,11.16
2019-05-01T00:50:19.332Z,11.13
2019-05-01T00:52:53.605Z,11.09
2019-05-01T00:55:31.470Z,11.05
2019-05-01T00:58:13.923Z,11.05
2019-05-01T01:00:59.160Z,11.12
2019-05-01T01:03:31.911Z,11.09
2019-05-01T01:06:05.544Z,11.17
2019-05-01T01:08:38.186Z,11.05
2019-05-01T01:11:11.104Z,10.90
2019-05-01T01:13:44.427Z,10.82
2019-05-01T01:16:17.079Z,10.66
2019-05-01T01:18:50.597Z,10.73
2019-05-01T01:21:23.380Z,10.68
2019-05-01T01:24:00.356Z,10.66
2019-05-01T01:26:32.930Z,10.65
2019-05-01T01:29:05.997Z,10.64
2019-05-01T01:31:39.169Z,10.65
2019-05-01T01:34:11.812Z,10.65
2019-05-01T01:36:48.327Z,10.55
2019-05-01T01:39:21.663Z,10.48
2019-05-01T01:41:55.330Z,10.59
2019-05-01T01:44:47.321Z,10.54
2019-05-01T01:47:19.959Z,10.58
2019-05-01T01:49:53.032Z,10.51
2019-05-01T01:52:25.759Z,10.45
2019-05-01T01:54:59.352Z,10.41
2019-05-01T01:57:32.107Z,10.35
2019-05-01T02:00:18.862Z,10.32
2019-05-01T02:02:57.992Z,10.31
2019-05-01T02:05:34.254Z,10.29
2019-05-01T02:08:08.948Z,10.25
2019-05-01T02:10:43.189Z,10.36
2019-05-01T02:13:16.018Z,10.28
2019-05-01T02:15:48.662Z,10.21
2019-05-01T02:18:21.611Z,10.20
2019-05-01T02:20:54.139Z,10.20
2019-05-01T02:23:27.633Z,10.20
2019-05-01T02:26:03.877Z,10.17
2019-05-01T02:28:47.916Z,10.13
2019-05-01T02:31:40.076Z,10.10
2019-05-01T02:34:13.178Z,10.18
2019-05-01T02:36:47.061Z,10.09
2019-05-01T02:39:19.935Z,10.07
2019-05-01T02:41:53.217Z,10.02
2019-05-01T02:44:34.091Z,9.98
2019-05-01T02:47:10.155Z,9.98
2019-05-01T02:49:51.795Z,9.99
2019-05-01T02:52:31.463Z,9.97
2019-05-01T02:55:11.058Z,10.10
2019-05-01T02:57:43.754Z,10.10
2019-05-01T03:00:19.048Z,10.23
2019-05-01T03:02:51.596Z,10.23
2019-05-01T03:05:24.066Z,10.24
2019-05-01T03:07:56.955Z,10.27
2019-05-01T03:10:29.523Z,10.32
2019-05-01T03:13:02.796Z,10.35
2019-05-01T03:15:35.355Z,10.46
2019-05-01T03:18:18.519Z,10.42
2019-05-01T03:20:59.931Z,10.44
2019-05-01T03:23:37.517Z,10.43
2019-05-01T03:26:09.984Z,10.45
2019-05-01T03:28:42.562Z,10.47
2019-05-01T03:31:15.229Z,10.49
2019-05-01T03:33:48.257Z,10.51
2019-05-01T03:36:20.788Z,10.51
2019-05-01T03:38:53.291Z,10.59
2019-05-01T03:41:26.351Z,10.58
2019-05-01T03:43:59.836Z,10.59
2019-05-01T03:46:32.584Z,10.59
2019-05-01T03:49:05.721Z,10.58
2019-05-01T03:51:38.456Z,10.63
2019-05-01T03:54:11.510Z,10.59
2019-05-01T03:56:46.377Z,10.60
2019-05-01T03:59:19.157Z,10.61
2019-05-01T04:02:12.571Z,10.60
2019-05-01T04:04:57.103Z,10.74
2019-05-01T04:07:29.605Z,10.75
2019-05-01T04:10:02.704Z,10.75
2019-05-01T04:12:35.258Z,10.81
2019-05-01T04:15:07.275Z,10.80
2019-05-01T04:17:48.748Z,10.81
2019-05-01T04:20:21.977Z,10.83
2019-05-01T04:22:55.128Z,10.83
2019-05-01T04:25:27.827Z,10.87
2019-05-01T04:28:30.554Z,10.86
2019-05-01T04:31:13.166Z,10.90
2019-05-01T04:33:47.789Z,10.91
2019-05-01T04:36:28.080Z,10.95
2019-05-01T04:39:05.445Z,10.93
2019-05-01T04:41:38.466Z,10.93
2019-05-01T04:44:10.989Z,10.93
2019-05-01T04:46:43.664Z,10.95
2019-05-01T04:49:18.064Z,10.97
2019-05-01T04:51:51.332Z,11.07
2019-05-01T04:54:24.331Z,10.97
2019-05-01T04:56:56.790Z,10.93
2019-05-01T04:59:29.603Z,10.92
2019-05-01T05:02:04.999Z,10.90
2019-05-01T05:04:37.541Z,10.92
2019-05-01T05:07:11.320Z,10.93
2019-05-01T05:09:45.625Z,10.88
2019-05-01T05:12:43.039Z,10.90
2019-05-01T05:15:41.501Z,11.00
2019-05-01T05:18:14.553Z,11.01
2019-05-01T05:20:47.334Z,11.07
2019-05-01T05:23:19.912Z,11.09
2019-05-01T05:25:52.746Z,11.19
2019-05-01T05:28:29.848Z,11.21
2019-05-01T05:31:04.886Z,11.15
2019-05-01T05:33:37.667Z,11.17
2019-05-01T05:36:10.817Z,11.22
2019-05-01T05:38:56.806Z,11.34
2019-05-01T05:41:29.335Z,11.30
2019-05-01T05:44:02.367Z,11.33
2019-05-01T05:46:34.987Z,11.41
2019-05-01T05:49:09.102Z,11.49
2019-05-01T05:51:51.609Z,11.58
2019-05-01T05:54:29.821Z,11.61
2019-05-01T05:57:12.433Z,11.65
2019-05-01T05:59:50.338Z,11.52
2019-05-01T06:02:43.994Z,11.55
2019-05-01T06:05:42.042Z,11.72
2019-05-01T06:08:20.427Z,11.83
2019-05-01T06:11:10.685Z,11.95
2019-05-01T06:14:03.951Z,11.99
2019-05-01T06:17:00.490Z,12.13
2019-05-01T06:19:53.140Z,12.20
2019-05-01T06:22:57.595Z,12.20
2019-05-01T06:25:34.145Z,12.18
2019-05-01T06:28:07.208Z,12.28
2019-05-01T06:30:42.131Z,12.32
2019-05-01T06:33:21.211Z,12.40
2019-05-01T06:35:54.713Z,12.31
2019-05-01T06:38:31.576Z,12.13
2019-05-01T06:41:08.428Z,12.05
2019-05-01T06:44:04.117Z,12.10
2019-05-01T06:46:52.171Z,12.05
2019-05-01T06:49:39.667Z,12.11
2019-05-01T06:52:15.626Z,12.13
2019-05-01T06:54:52.107Z,12.15
2019-05-01T06:57:26.479Z,12.14
2019-05-01T07:00:03.246Z,12.15
2019-05-01T07:02:50.911Z,12.18
2019-05-01T07:05:26.086Z,12.32
2019-05-01T07:07:58.558Z,12.31
2019-05-01T07:10:43.214Z,12.24
2019-05-01T07:13:17.123Z,11.94
2019-05-01T07:15:49.678Z,11.94
2019-05-01T07:18:24.054Z,11.84
2019-05-01T07:21:01.687Z,11.89
2019-05-01T07:23:34.780Z,12.01
2019-05-01T07:26:09.986Z,12.09
2019-05-01T07:28:53.833Z,12.14
2019-05-01T07:31:30.902Z,12.09
2019-05-01T07:34:15.994Z,12.13
2019-05-01T07:36:51.715Z,12.30
2019-05-01T07:39:24.833Z,12.41
2019-05-01T07:42:16.860Z,12.47
2019-05-01T07:44:53.674Z,12.48
2019-05-01T07:47:32.884Z,12.45
2019-05-01T07:50:09.251Z,12.35
2019-05-01T07:52:42.359Z,12.34
2019-05-01T07:55:18.084Z,12.30
2019-05-01T07:57:51.852Z,12.28
2019-05-01T08:01:00.615Z,12.26
2019-05-01T08:03:38.115Z,12.35
2019-05-01T08:06:16.396Z,12.36
2019-05-01T08:08:55.257Z,12.43
2019-05-01T08:11:28.468Z,12.47
2019-05-01T08:14:07.289Z,12.51
2019-05-01T08:16:42.480Z,12.57
2019-05-01T08:19:27.058Z,12.58
2019-05-01T08:22:09.695Z,12.61
2019-05-01T08:24:42.396Z,12.60
2019-05-01T08:27:34.893Z,12.56
2019-05-01T08:30:33.519Z,12.63
2019-05-01T08:33:30.468Z,12.69
2019-05-01T08:36:06.886Z,12.72
2019-05-01T08:38:45.714Z,12.81
2019-05-01T08:41:20.380Z,12.97
2019-05-01T08:43:55.931Z,13.05
2019-05-01T08:46:51.110Z,12.96
2019-05-01T08:49:29.797Z,12.82
2019-05-01T08:52:04.731Z,12.79
2019-05-01T08:54:42.763Z,12.80
2019-05-01T08:57:16.133Z,12.79
2019-05-01T08:59:49.965Z,12.74
2019-05-01T09:02:26.779Z,12.78
2019-05-01T09:05:03.022Z,12.87
2019-05-01T09:07:40.900Z,12.97
2019-05-01T09:10:21.802Z,13.08
2019-05-01T09:12:57.465Z,13.13
2019-05-01T09:15:31.203Z,13.03
2019-05-01T09:18:05.552Z,12.89
2019-05-01T09:20:52.938Z,12.96
2019-05-01T09:23:25.670Z,12.99
2019-05-01T09:26:15.933Z,13.03
2019-05-01T09:28:56.867Z,13.04
2019-05-01T09:31:33.894Z,13.13
2019-05-01T09:34:09.596Z,13.19
2019-05-01T09:36:42.375Z,13.24
2019-05-01T09:39:23.113Z,13.30
2019-05-01T09:41:57.038Z,13.38
2019-05-01T09:44:32.727Z,13.40
2019-05-01T09:47:06.979Z,13.46
2019-05-01T09:49:39.773Z,13.54
2019-05-01T09:52:32.107Z,13.63
2019-05-01T09:55:17.819Z,13.72
2019-05-01T09:57:56.075Z,13.76
2019-05-01T10:00:31.556Z,13.80
2019-05-01T10:03:04.889Z,13.77
2019-05-01T10:05:43.027Z,13.77
2019-05-01T10:08:18.945Z,13.87
2019-05-01T10:10:52.264Z,13.92
2019-05-01T10:13:29.468Z,13.91
2019-05-01T10:16:02.725Z,14.04
2019-05-01T10:18:37.959Z,14.11
2019-05-01T10:21:16.431Z,14.14
2019-05-01T10:23:51.679Z,14.06
2019-05-01T10:26:29.680Z,13.95
2019-05-01T10:29:27.500Z,13.96
2019-05-01T10:32:16.989Z,13.92
2019-05-01T10:35:08.560Z,13.87
2019-05-01T10:37:42.118Z,13.94
2019-05-01T10:40:18.559Z,14.04
2019-05-01T10:42:55.429Z,13.88
2019-05-01T10:45:29.687Z,13.69
2019-05-01T10:48:02.731Z,13.69
2019-05-01T10:50:39.624Z,13.77
2019-05-01T10:53:14.070Z,13.88
2019-05-01T10:55:46.694Z,14.04
2019-05-01T10:58:20.707Z,14.18
2019-05-01T11:01:14.915Z,14.02
2019-05-01T11:03:55.496Z,13.90
2019-05-01T11:06:30.681Z,13.81
2019-05-01T11:09:05.550Z,13.85
2019-05-01T11:11:40.458Z,14.03
2019-05-01T11:14:14.999Z,13.94
2019-05-01T11:16:49.090Z,13.94
2019-05-01T11:19:23.026Z,13.92
2019-05-01T11:21:56.613Z,13.98
2019-05-01T11:24:29.363Z,14.01
2019-05-01T11:27:03.096Z,14.06
2019-05-01T11:29:40.361Z,14.25
2019-05-01T11:32:34.861Z,14.48
2019-05-01T11:35:31.183Z,14.83
2019-05-01T11:38:19.580Z,15.28
2019-05-01T11:40:57.526Z,15.54
2019-05-01T11:43:38.836Z,15.62
2019-05-01T11:46:12.372Z,15.58
2019-05-01T11:48:45.001Z,15.47
2019-05-01T11:51:20.740Z,15.41
2019-05-01T11:53:53.420Z,15.41
2019-05-01T11:56:28.324Z,15.47
2019-05-01T11:59:03.476Z,15.59
2019-05-01T12:01:40.608Z,15.72
2019-05-01T12:04:14.263Z,15.74
2019-05-01T12:06:47.252Z,15.74
2019-05-01T12:09:22.165Z,15.83
2019-05-01T12:12:01.133Z,15.91
2019-05-01T12:14:33.935Z,15.95
2019-05-01T12:17:19.845Z,15.97
2019-05-01T12:19:55.763Z,15.99
2019-05-01T12:22:30.693Z,16.24
2019-05-01T12:25:04.856Z,16.36
2019-05-01T12:27:41.167Z,16.49
2019-05-01T12:30:17.673Z,16.62
2019-05-01T12:32:52.220Z,16.81
2019-05-01T12:35:27.075Z,16.95
2019-05-01T12:38:02.317Z,17.06
2019-05-01T12:40:37.013Z,17.08
2019-05-01T12:43:13.781Z,16.97
2019-05-01T12:45:51.755Z,16.90
2019-05-01T12:48:27.884Z,16.98
2019-05-01T12:51:01.452Z,16.99
2019-05-01T12:54:01.654Z,16.98
2019-05-01T12:56:50.474Z,16.74
2019-05-01T12:59:29.527Z,16.60
2019-05-01T13:02:28.736Z,16.65
2019-05-01T13:05:06.363Z,16.70
2019-05-01T13:07:40.273Z,16.80
2019-05-01T13:10:13.621Z,16.70
2019-05-01T13:12:46.464Z,16.57
2019-05-01T13:15:23.432Z,16.67
2019-05-01T13:17:56.099Z,16.66
2019-05-01T13:20:30.210Z,16.77
2019-05-01T13:23:04.000Z,16.98
2019-05-01T13:25:41.374Z,17.08
2019-05-01T13:28:19.815Z,17.16
2019-05-01T13:31:06.197Z,17.21
2019-05-01T13:33:39.605Z,17.34
2019-05-01T13:36:12.848Z,17.31
2019-05-01T13:38:45.772Z,17.26
2019-05-01T13:41:21.436Z,17.35
2019-05-01T13:43:55.027Z,17.38
2019-05-01T13:46:28.037Z,17.51
2019-05-01T13:49:02.283Z,17.58
2019-05-01T13:51:35.978Z,17.65
2019-05-01T13:54:12.564Z,17.70
2019-05-01T13:56:45.603Z,17.87
2019-05-01T13:59:18.674Z,18.25
2019-05-01T14:01:53.572Z,18.39
2019-05-01T14:04:28.725Z,18.51
2019-05-01T14:07:02.108Z,18.96
2019-05-01T14:09:38.411Z,19.28
2019-05-01T14:12:11.257Z,19.00
2019-05-01T14:14:44.222Z,18.81
2019-05-01T14:17:16.852Z,19.02
2019-05-01T14:20:08.194Z,19.26
2019-05-01T14:22:52.122Z,19.31
2019-05-01T14:25:56.379Z,19.43
2019-05-01T14:28:30.840Z,19.56
2019-05-01T14:31:06.295Z,19.78
2019-05-01T14:33:40.984Z,20.02
2019-05-01T14:36:16.213Z,20.17
2019-05-01T14:38:51.564Z,20.25
2019-05-01T14:41:24.766Z,20.30
2019-05-01T14:43:59.018Z,20.38
2019-05-01T14:46:32.467Z,20.58
2019-05-01T14:49:07.319Z,20.89
2019-05-01T14:51:40.216Z,21.13
2019-05-01T14:54:16.557Z,21.30
2019-05-01T14:56:51.731Z,21.30
2019-05-01T14:59:25.501Z,21.20
2019-05-01T15:02:01.872Z,20.91
2019-05-01T15:04:35.540Z,20.83
2019-05-01T15:07:11.188Z,20.93
2019-05-01T15:09:44.953Z,21.13
2019-05-01T15:12:18.525Z,21.09
2019-05-01T15:15:05.723Z,20.99
2019-05-01T15:17:47.474Z,20.91
2019-05-01T15:20:23.748Z,20.99
2019-05-01T15:23:01.276Z,21.09
2019-05-01T15:25:36.804Z,21.05
2019-05-01T15:28:12.982Z,21.07
2019-05-01T15:30:46.503Z,21.00
2019-05-01T15:33:19.339Z,21.07
2019-05-01T15:35:53.033Z,21.15
2019-05-01T15:38:26.685Z,21.22
2019-05-01T15:41:22.687Z,21.29
2019-05-01T15:44:01.766Z,21.18
2019-05-01T15:46:36.970Z,21.18
2019-05-01T15:49:15.340Z,21.17
2019-05-01T15:51:48.166Z,21.06
2019-05-01T15:54:22.881Z,21.18
2019-05-01T15:56:59.553Z,21.37
2019-05-01T15:59:32.206Z,21.37
2019-05-01T16:02:05.184Z,21.30
2019-05-01T16:04:38.561Z,21.27
2019-05-01T16:07:13.058Z,21.25
2019-05-01T16:09:51.735Z,21.14
2019-05-01T16:12:46.624Z,21.02
2019-05-01T16:15:32.741Z,20.90
2019-05-01T16:18:05.870Z,20.84
2019-05-01T16:20:38.555Z,20.79
2019-05-01T16:23:11.624Z,20.77
2019-05-01T16:25:46.840Z,20.89
2019-05-01T16:28:19.589Z,21.00
2019-05-01T16:30:54.337Z,21.08
2019-05-01T16:33:27.998Z,21.04
2019-05-01T16:36:00.917Z,21.02
2019-05-01T16:38:58.626Z,20.99
2019-05-01T16:41:32.394Z,21.06
2019-05-01T16:44:06.276Z,21.00
2019-05-01T16:46:39.883Z,20.56
2019-05-01T16:49:13.082Z,20.41
2019-05-01T16:51:46.827Z,20.37
2019-05-01T16:54:22.619Z,20.42
2019-05-01T16:56:57.443Z,20.50
2019-05-01T16:59:30.349Z,20.35
2019-05-01T17:02:20.821Z,20.14
2019-05-01T17:05:01.448Z,19.93
2019-05-01T17:07:41.837Z,19.90
2019-05-01T17:10:27.111Z,19.94
2019-05-01T17:13:00.623Z,20.00
2019-05-01T17:15:41.687Z,20.07
2019-05-01T17:18:16.925Z,19.96
2019-05-01T17:20:50.112Z,19.86
2019-05-01T17:23:23.805Z,19.68
2019-05-01T17:26:07.157Z,19.59
2019-05-01T17:28:41.636Z,19.49
2019-05-01T17:31:16.240Z,19.43
2019-05-01T17:33:55.599Z,19.17
2019-05-01T17:36:33.081Z,18.93
2019-05-01T17:39:06.588Z,18.73
2019-05-01T17:41:39.115Z,18.62
2019-05-01T17:44:14.332Z,18.48
2019-05-01T17:46:49.691Z,18.42
2019-05-01T17:49:24.962Z,18.42
2019-05-01T17:51:58.123Z,18.34
2019-05-01T17:54:32.611Z,18.24
2019-05-01T17:57:05.314Z,18.29
2019-05-01T17:59:37.960Z,18.22
2019-05-01T18:02:29.358Z,18.14
2019-05-01T18:05:24.639Z,18.04
2019-05-01T18:07:57.511Z,17.95
2019-05-01T18:10:34.119Z,17.84
2019-05-01T18:13:12.138Z,17.68
2019-05-01T18:15:46.558Z,17.57
2019-05-01T18:18:19.839Z,17.53
2019-05-01T18:20:53.314Z,17.35
2019-05-01T18:23:53.065Z,17.20
2019-05-01T18:26:38.768Z,17.14
2019-05-01T18:29:24.595Z,17.08
2019-05-01T18:32:03.081Z,16.92
2019-05-01T18:34:41.481Z,16.81
2019-05-01T18:37:23.072Z,16.70
2019-05-01T18:39:56.302Z,16.62
2019-05-01T18:42:31.730Z,16.56
2019-05-01T18:45:14.324Z,16.46
2019-05-01T18:47:47.729Z,16.38
2019-05-01T18:50:21.558Z,16.31
2019-05-01T18:52:54.681Z,16.24
2019-05-01T18:55:30.381Z,16.22
2019-05-01T18:58:04.588Z,16.30
2019-05-01T19:00:38.110Z,16.28
2019-05-01T19:03:11.782Z,16.18
2019-05-01T19:05:48.131Z,16.17
2019-05-01T19:08:23.090Z,16.13
2019-05-01T19:11:12.319Z,16.05
2019-05-01T19:13:49.713Z,15.97
2019-05-01T19:16:24.225Z,15.85
2019-05-01T19:18:58.278Z,15.73
2019-05-01T19:21:32.381Z,15.65
2019-05-01T19:24:08.305Z,15.56
2019-05-01T19:26:44.095Z,15.53
2019-05-01T19:29:19.941Z,15.60
2019-05-01T19:31:53.846Z,15.42
2019-05-01T19:34:30.156Z,15.18
2019-05-01T19:37:05.098Z,14.92
2019-05-01T19:39:43.961Z,14.68
2019-05-01T19:42:21.704Z,14.45
2019-05-01T19:44:58.763Z,14.21
2019-05-01T19:47:33.129Z,14.02
2019-05-01T19:50:11.736Z,13.85
2019-05-01T19:52:46.357Z,13.73
2019-05-01T19:55:19.899Z,13.76
2019-05-01T19:57:53.945Z,13.62
2019-05-01T20:01:05.676Z,13.56
2019-05-01T20:03:38.738Z,13.44
2019-05-01T20:06:13.415Z,13.38
2019-05-01T20:08:46.649Z,13.25
2019-05-01T20:11:27.419Z,13.13
2019-05-01T20:14:06.012Z,13.11
2019-05-01T20:16:40.475Z,13.08
2019-05-01T20:19:13.308Z,13.03
2019-05-01T20:21:45.920Z,13.05
2019-05-01T20:24:20.425Z,13.03
2019-05-01T20:26:53.492Z,12.84
2019-05-01T20:29:27.561Z,12.72
2019-05-01T20:32:01.691Z,12.62
2019-05-01T20:34:36.035Z,12.57
2019-05-01T20:37:09.271Z,12.47
2019-05-01T20:39:41.950Z,12.40
2019-05-01T20:42:17.735Z,12.46
2019-05-01T20:45:03.970Z,12.36
2019-05-01T20:47:46.004Z,12.26
2019-05-01T20:50:22.883Z,12.35
2019-05-01T20:52:58.716Z,12.23
2019-05-01T20:55:32.916Z,12.13
2019-05-01T20:58:12.843Z,12.07
2019-05-01T21:00:48.225Z,12.00
2019-05-01T21:03:28.096Z,11.94
2019-05-01T21:06:23.575Z,12.06
2019-05-01T21:09:02.571Z,12.13
2019-05-01T21:11:42.135Z,11.97
2019-05-01T21:14:22.849Z,11.87
2019-05-01T21:16:56.064Z,11.95
2019-05-01T21:19:32.504Z,11.83
2019-05-01T21:22:08.463Z,11.71
2019-05-01T21:24:41.595Z,11.66
2019-05-01T21:27:16.976Z,11.61
2019-05-01T21:29:50.940Z,11.56
2019-05-01T21:32:27.511Z,11.48
2019-05-01T21:35:02.221Z,11.31
2019-05-01T21:37:36.182Z,11.28
2019-05-01T21:40:12.727Z,11.24
2019-05-01T21:42:47.290Z,11.28
2019-05-01T21:45:24.920Z,11.22
2019-05-01T21:47:57.720Z,11.22
2019-05-01T21:50:31.164Z,11.35
2019-05-01T21:53:06.957Z,11.30
2019-05-01T21:55:41.395Z,11.25
2019-05-01T21:58:15.325Z,11.22
2019-05-01T22:00:51.072Z,11.20
2019-05-01T22:03:23.999Z,11.16
2019-05-01T22:05:56.995Z,11.24
2019-05-01T22:08:34.576Z,11.17
2019-05-01T22:11:12.851Z,11.08
2019-05-01T22:13:48.701Z,11.17
2019-05-01T22:16:26.834Z,11.15
2019-05-01T22:19:13.405Z,11.01
2019-05-01T22:22:03.345Z,10.88
2019-05-01T22:24:42.930Z,10.78
2019-05-01T22:27:23.433Z,10.75
2019-05-01T22:30:10.792Z,10.85
2019-05-01T22:32:50.359Z,10.75
2019-05-01T22:35:33.905Z,10.82
2019-05-01T22:38:08.096Z,10.85
2019-05-01T22:41:06.553Z,10.70
2019-05-01T22:43:39.960Z,10.57
2019-05-01T22:46:22.741Z,10.48
2019-05-01T22:48:55.350Z,10.41
2019-05-01T22:51:27.942Z,10.41
2019-05-01T22:54:03.171Z,10.37
2019-05-01T22:56:36.627Z,10.33
2019-05-01T22:59:11.478Z,10.26
2019-05-01T23:01:53.054Z,10.23
2019-05-01T23:04:27.497Z,10.18
2019-05-01T23:07:00.152Z,10.15
2019-05-01T23:09:35.337Z,10.11
2019-05-01T23:12:09.448Z,10.09
2019-05-01T23:14:45.151Z,10.07
2019-05-01T23:17:29.991Z,10.06
2019-05-01T23:20:03.985Z,10.03
2019-05-01T23:22:37.980Z,9.98
2019-05-01T23:25:11.012Z,10.06
2019-05-01T23:27:43.672Z,9.98
2019-05-01T23:30:20.254Z,9.93
2019-05-01T23:32:53.239Z,9.89
2019-05-01T23:35:25.856Z,9.85
2019-05-01T23:37:58.291Z,9.79
2019-05-01T23:40:30.994Z,9.77
2019-05-01T23:43:03.892Z,9.76
2019-05-01T23:45:36.499Z,9.75
2019-05-01T23:48:09.316Z,9.70
2019-05-01T23:50:42.539Z,9.68
2019-05-01T23:53:15.213Z,9.67
2019-05-01T23:55:49.683Z,9.61
2019-05-01T23:58:23.658Z,9.55
